sensor_id;sensor_type;location;lat;lon;timestamp;P1;durP1;ratioP1;P2;durP2;ratioP2
44985;SDS011;30721;49.380;7.736;2023-05-19T00:02:22;5.00;;;2.45;;
44985;SDS011;30721;49.380;7.736;2023-05-19T00:04:50;3.05;;;2.47;;
44985;SDS011;30721;49.380;7.736;2023-05-19T00:07:16;5.70;;;2.67;;
44985;SDS011;30721;49.380;7.736;2023-05-19T00:09:43;5.65;;;2.70;;
44985;SDS011;30721;49.380;7.736;2023-05-19T00:12:09;5.32;;;2.55;;
44985;SDS011;30721;49.380;7.736;2023-05-19T00:14:35;3.92;;;2.50;;
44985;SDS011;30721;49.380;7.736;2023-05-19T00:17:01;4.35;;;2.70;;
44985;SDS011;30721;49.380;7.736;2023-05-19T00:19:26;4.13;;;2.25;;
44985;SDS011;30721;49.380;7.736;2023-05-19T00:21:56;5.68;;;2.75;;
44985;SDS011;30721;49.380;7.736;2023-05-19T00:24:22;4.72;;;2.50;;
44985;SDS011;30721;49.380;7.736;2023-05-19T00:26:47;3.40;;;2.40;;
44985;SDS011;30721;49.380;7.736;2023-05-19T00:29:13;5.47;;;2.47;;
44985;SDS011;30721;49.380;7.736;2023-05-19T00:31:42;3.22;;;2.30;;
44985;SDS011;30721;49.380;7.736;2023-05-19T00:34:08;5.25;;;2.75;;
44985;SDS011;30721;49.380;7.736;2023-05-19T00:36:33;3.22;;;2.30;;
44985;SDS011;30721;49.380;7.736;2023-05-19T00:38:58;3.83;;;2.45;;
44985;SDS011;30721;49.380;7.736;2023-05-19T00:41:24;5.78;;;2.67;;
44985;SDS011;30721;49.380;7.736;2023-05-19T00:43:50;6.40;;;3.17;;
44985;SDS011;30721;49.380;7.736;2023-05-19T00:46:17;4.80;;;2.88;;
44985;SDS011;30721;49.380;7.736;2023-05-19T00:48:43;3.97;;;2.58;;
44985;SDS011;30721;49.380;7.736;2023-05-19T00:51:09;4.70;;;3.10;;
44985;SDS011;30721;49.380;7.736;2023-05-19T00:53:38;5.53;;;2.92;;
44985;SDS011;30721;49.380;7.736;2023-05-19T00:56:04;4.30;;;3.17;;
44985;SDS011;30721;49.380;7.736;2023-05-19T00:58:30;6.75;;;2.90;;
44985;SDS011;30721;49.380;7.736;2023-05-19T01:00:59;4.70;;;2.90;;
44985;SDS011;30721;49.380;7.736;2023-05-19T01:03:31;3.50;;;2.75;;
44985;SDS011;30721;49.380;7.736;2023-05-19T01:05:59;3.35;;;2.85;;
44985;SDS011;30721;49.380;7.736;2023-05-19T01:08:34;4.03;;;2.35;;
44985;SDS011;30721;49.380;7.736;2023-05-19T01:11:01;4.45;;;2.53;;
44985;SDS011;30721;49.380;7.736;2023-05-19T01:13:27;5.10;;;2.72;;
44985;SDS011;30721;49.380;7.736;2023-05-19T01:15:57;3.00;;;2.47;;
44985;SDS011;30721;49.380;7.736;2023-05-19T01:18:39;3.60;;;3.00;;
44985;SDS011;30721;49.380;7.736;2023-05-19T01:31:58;4.63;;;2.83;;
44985;SDS011;30721;49.380;7.736;2023-05-19T01:34:24;5.07;;;3.03;;
44985;SDS011;30721;49.380;7.736;2023-05-19T01:36:51;4.00;;;2.92;;
44985;SDS011;30721;49.380;7.736;2023-05-19T01:39:19;3.60;;;3.08;;
44985;SDS011;30721;49.380;7.736;2023-05-19T01:41:45;9.32;;;3.63;;
44985;SDS011;30721;49.380;7.736;2023-05-19T01:44:11;5.28;;;2.80;;
44985;SDS011;30721;49.380;7.736;2023-05-19T01:46:37;5.43;;;3.08;;
44985;SDS011;30721;49.380;7.736;2023-05-19T01:49:03;4.68;;;2.60;;
44985;SDS011;30721;49.380;7.736;2023-05-19T01:51:28;6.32;;;3.78;;
44985;SDS011;30721;49.380;7.736;2023-05-19T01:53:55;5.45;;;3.33;;
44985;SDS011;30721;49.380;7.736;2023-05-19T01:56:24;3.45;;;2.78;;
44985;SDS011;30721;49.380;7.736;2023-05-19T01:58:59;4.13;;;2.80;;
44985;SDS011;30721;49.380;7.736;2023-05-19T02:01:41;5.68;;;3.00;;
44985;SDS011;30721;49.380;7.736;2023-05-19T02:07:09;5.28;;;2.22;;
44985;SDS011;30721;49.380;7.736;2023-05-19T02:12:18;3.72;;;2.58;;
44985;SDS011;30721;49.380;7.736;2023-05-19T02:14:50;5.32;;;2.92;;
44985;SDS011;30721;49.380;7.736;2023-05-19T02:17:18;5.53;;;2.70;;
44985;SDS011;30721;49.380;7.736;2023-05-19T02:19:44;5.38;;;2.78;;
44985;SDS011;30721;49.380;7.736;2023-05-19T02:22:10;4.25;;;2.67;;
44985;SDS011;30721;49.380;7.736;2023-05-19T02:24:35;3.53;;;2.97;;
44985;SDS011;30721;49.380;7.736;2023-05-19T02:27:01;4.15;;;2.90;;
44985;SDS011;30721;49.380;7.736;2023-05-19T02:29:27;3.67;;;2.80;;
44985;SDS011;30721;49.380;7.736;2023-05-19T02:31:52;4.43;;;2.72;;
44985;SDS011;30721;49.380;7.736;2023-05-19T02:34:18;6.15;;;2.70;;
44985;SDS011;30721;49.380;7.736;2023-05-19T02:36:43;4.50;;;2.50;;
44985;SDS011;30721;49.380;7.736;2023-05-19T02:39:09;3.92;;;2.35;;
44985;SDS011;30721;49.380;7.736;2023-05-19T02:41:35;4.07;;;2.63;;
44985;SDS011;30721;49.380;7.736;2023-05-19T02:44:01;5.47;;;2.90;;
44985;SDS011;30721;49.380;7.736;2023-05-19T02:46:27;5.45;;;2.35;;
44985;SDS011;30721;49.380;7.736;2023-05-19T02:48:52;3.05;;;2.45;;
44985;SDS011;30721;49.380;7.736;2023-05-19T02:51:17;6.18;;;3.63;;
44985;SDS011;30721;49.380;7.736;2023-05-19T02:53:43;5.15;;;2.47;;
44985;SDS011;30721;49.380;7.736;2023-05-19T02:56:08;3.70;;;2.70;;
44985;SDS011;30721;49.380;7.736;2023-05-19T02:58:33;3.55;;;2.47;;
44985;SDS011;30721;49.380;7.736;2023-05-19T03:00:59;2.88;;;2.60;;
44985;SDS011;30721;49.380;7.736;2023-05-19T03:03:24;4.18;;;2.50;;
44985;SDS011;30721;49.380;7.736;2023-05-19T03:05:51;5.57;;;3.08;;
44985;SDS011;30721;49.380;7.736;2023-05-19T03:08:17;7.70;;;3.05;;
44985;SDS011;30721;49.380;7.736;2023-05-19T03:10:44;3.92;;;2.28;;
44985;SDS011;30721;49.380;7.736;2023-05-19T03:13:10;5.03;;;2.80;;
44985;SDS011;30721;49.380;7.736;2023-05-19T03:15:35;6.18;;;2.88;;
44985;SDS011;30721;49.380;7.736;2023-05-19T03:18:01;3.83;;;2.58;;
44985;SDS011;30721;49.380;7.736;2023-05-19T03:20:26;4.22;;;3.10;;
44985;SDS011;30721;49.380;7.736;2023-05-19T03:22:51;4.63;;;2.45;;
44985;SDS011;30721;49.380;7.736;2023-05-19T03:25:17;7.13;;;2.92;;
44985;SDS011;30721;49.380;7.736;2023-05-19T03:27:42;4.85;;;2.65;;
44985;SDS011;30721;49.380;7.736;2023-05-19T03:30:08;4.30;;;2.67;;
44985;SDS011;30721;49.380;7.736;2023-05-19T03:32:33;3.67;;;2.75;;
44985;SDS011;30721;49.380;7.736;2023-05-19T03:35:02;3.58;;;2.45;;
44985;SDS011;30721;49.380;7.736;2023-05-19T03:37:29;3.28;;;2.85;;
44985;SDS011;30721;49.380;7.736;2023-05-19T03:39:54;2.58;;;2.35;;
44985;SDS011;30721;49.380;7.736;2023-05-19T03:42:19;4.90;;;2.95;;
44985;SDS011;30721;49.380;7.736;2023-05-19T03:44:45;5.32;;;2.70;;
44985;SDS011;30721;49.380;7.736;2023-05-19T03:47:10;4.78;;;2.45;;
44985;SDS011;30721;49.380;7.736;2023-05-19T03:49:36;2.90;;;2.15;;
44985;SDS011;30721;49.380;7.736;2023-05-19T03:52:01;5.35;;;2.60;;
44985;SDS011;30721;49.380;7.736;2023-05-19T03:54:27;4.43;;;2.75;;
44985;SDS011;30721;49.380;7.736;2023-05-19T03:56:52;7.50;;;2.97;;
44985;SDS011;30721;49.380;7.736;2023-05-19T03:59:18;4.28;;;2.47;;
44985;SDS011;30721;49.380;7.736;2023-05-19T04:01:43;2.58;;;2.38;;
44985;SDS011;30721;49.380;7.736;2023-05-19T04:04:10;5.35;;;3.05;;
44985;SDS011;30721;49.380;7.736;2023-05-19T04:06:35;4.40;;;2.78;;
44985;SDS011;30721;49.380;7.736;2023-05-19T04:09:01;3.95;;;2.78;;
44985;SDS011;30721;49.380;7.736;2023-05-19T04:11:28;3.47;;;2.80;;
44985;SDS011;30721;49.380;7.736;2023-05-19T04:13:53;3.33;;;2.53;;
44985;SDS011;30721;49.380;7.736;2023-05-19T04:16:19;3.20;;;2.42;;
44985;SDS011;30721;49.380;7.736;2023-05-19T04:18:45;3.85;;;2.33;;
44985;SDS011;30721;49.380;7.736;2023-05-19T04:21:10;4.53;;;2.67;;
44985;SDS011;30721;49.380;7.736;2023-05-19T04:23:36;3.28;;;2.33;;
44985;SDS011;30721;49.380;7.736;2023-05-19T04:26:01;4.78;;;2.33;;
44985;SDS011;30721;49.380;7.736;2023-05-19T04:28:27;3.78;;;2.53;;
44985;SDS011;30721;49.380;7.736;2023-05-19T04:30:53;3.88;;;2.20;;
44985;SDS011;30721;49.380;7.736;2023-05-19T04:33:20;4.72;;;2.40;;
44985;SDS011;30721;49.380;7.736;2023-05-19T04:35:45;4.68;;;2.60;;
44985;SDS011;30721;49.380;7.736;2023-05-19T04:38:11;4.90;;;2.75;;
44985;SDS011;30721;49.380;7.736;2023-05-19T04:40:36;4.15;;;2.35;;
44985;SDS011;30721;49.380;7.736;2023-05-19T04:43:06;4.65;;;2.55;;
44985;SDS011;30721;49.380;7.736;2023-05-19T04:45:33;4.57;;;2.70;;
44985;SDS011;30721;49.380;7.736;2023-05-19T04:47:58;6.00;;;2.97;;
44985;SDS011;30721;49.380;7.736;2023-05-19T04:50:24;6.90;;;2.53;;
44985;SDS011;30721;49.380;7.736;2023-05-19T04:52:50;5.90;;;2.40;;
44985;SDS011;30721;49.380;7.736;2023-05-19T04:55:15;5.22;;;2.50;;
44985;SDS011;30721;49.380;7.736;2023-05-19T04:57:41;4.95;;;2.40;;
44985;SDS011;30721;49.380;7.736;2023-05-19T05:00:06;3.83;;;2.65;;
44985;SDS011;30721;49.380;7.736;2023-05-19T05:02:36;3.13;;;2.40;;
44985;SDS011;30721;49.380;7.736;2023-05-19T05:05:01;4.13;;;2.38;;
44985;SDS011;30721;49.380;7.736;2023-05-19T05:07:27;3.67;;;2.35;;
44985;SDS011;30721;49.380;7.736;2023-05-19T05:09:52;5.55;;;2.40;;
44985;SDS011;30721;49.380;7.736;2023-05-19T05:12:17;6.60;;;2.85;;
44985;SDS011;30721;49.380;7.736;2023-05-19T05:14:43;3.25;;;2.50;;
44985;SDS011;30721;49.380;7.736;2023-05-19T05:17:10;2.83;;;1.98;;
44985;SDS011;30721;49.380;7.736;2023-05-19T05:19:36;3.58;;;2.38;;
44985;SDS011;30721;49.380;7.736;2023-05-19T05:22:01;5.35;;;2.20;;
44985;SDS011;30721;49.380;7.736;2023-05-19T05:24:28;5.38;;;2.30;;
44985;SDS011;30721;49.380;7.736;2023-05-19T05:26:54;4.13;;;2.13;;
44985;SDS011;30721;49.380;7.736;2023-05-19T05:29:19;3.00;;;1.98;;
44985;SDS011;30721;49.380;7.736;2023-05-19T05:31:45;6.03;;;2.80;;
44985;SDS011;30721;49.380;7.736;2023-05-19T05:34:10;4.20;;;2.70;;
44985;SDS011;30721;49.380;7.736;2023-05-19T05:36:36;4.57;;;2.30;;
44985;SDS011;30721;49.380;7.736;2023-05-19T05:39:01;4.90;;;2.40;;
44985;SDS011;30721;49.380;7.736;2023-05-19T05:41:27;5.45;;;2.38;;
44985;SDS011;30721;49.380;7.736;2023-05-19T05:43:59;5.60;;;2.10;;
44985;SDS011;30721;49.380;7.736;2023-05-19T05:46:27;6.22;;;3.60;;
44985;SDS011;30721;49.380;7.736;2023-05-19T05:48:53;3.05;;;2.00;;
44985;SDS011;30721;49.380;7.736;2023-05-19T05:51:22;3.03;;;2.42;;
44985;SDS011;30721;49.380;7.736;2023-05-19T05:53:52;5.30;;;2.40;;
44985;SDS011;30721;49.380;7.736;2023-05-19T05:56:19;4.30;;;1.98;;
44985;SDS011;30721;49.380;7.736;2023-05-19T05:58:45;4.53;;;2.15;;
44985;SDS011;30721;49.380;7.736;2023-05-19T06:01:11;4.47;;;2.33;;
44985;SDS011;30721;49.380;7.736;2023-05-19T06:03:40;3.90;;;2.25;;
44985;SDS011;30721;49.380;7.736;2023-05-19T06:06:08;3.22;;;2.60;;
44985;SDS011;30721;49.380;7.736;2023-05-19T06:08:34;5.28;;;2.17;;
44985;SDS011;30721;49.380;7.736;2023-05-19T06:11:00;7.25;;;3.58;;
44985;SDS011;30721;49.380;7.736;2023-05-19T06:13:25;2.88;;;1.77;;
44985;SDS011;30721;49.380;7.736;2023-05-19T06:15:51;4.15;;;2.15;;
44985;SDS011;30721;49.380;7.736;2023-05-19T06:18:17;3.78;;;1.98;;
44985;SDS011;30721;49.380;7.736;2023-05-19T06:20:42;4.78;;;2.08;;
44985;SDS011;30721;49.380;7.736;2023-05-19T06:23:08;2.88;;;1.98;;
44985;SDS011;30721;49.380;7.736;2023-05-19T06:25:33;3.53;;;1.90;;
44985;SDS011;30721;49.380;7.736;2023-05-19T06:27:59;3.30;;;2.00;;
44985;SDS011;30721;49.380;7.736;2023-05-19T06:30:24;3.22;;;1.80;;
44985;SDS011;30721;49.380;7.736;2023-05-19T06:32:50;3.90;;;1.77;;
44985;SDS011;30721;49.380;7.736;2023-05-19T06:35:15;4.28;;;1.77;;
44985;SDS011;30721;49.380;7.736;2023-05-19T06:37:40;5.25;;;1.77;;
44985;SDS011;30721;49.380;7.736;2023-05-19T06:40:06;5.10;;;2.75;;
44985;SDS011;30721;49.380;7.736;2023-05-19T06:42:32;3.95;;;1.92;;
44985;SDS011;30721;49.380;7.736;2023-05-19T06:44:57;3.65;;;2.20;;
44985;SDS011;30721;49.380;7.736;2023-05-19T06:47:23;4.50;;;2.08;;
44985;SDS011;30721;49.380;7.736;2023-05-19T06:49:48;4.55;;;2.03;;
44985;SDS011;30721;49.380;7.736;2023-05-19T06:52:20;4.93;;;1.70;;
44985;SDS011;30721;49.380;7.736;2023-05-19T06:54:46;3.10;;;2.03;;
44985;SDS011;30721;49.380;7.736;2023-05-19T06:57:15;6.07;;;2.00;;
44985;SDS011;30721;49.380;7.736;2023-05-19T06:59:40;5.40;;;1.73;;
44985;SDS011;30721;49.380;7.736;2023-05-19T07:02:07;2.60;;;1.50;;
44985;SDS011;30721;49.380;7.736;2023-05-19T07:04:33;3.17;;;1.67;;
44985;SDS011;30721;49.380;7.736;2023-05-19T07:06:58;2.45;;;1.65;;
44985;SDS011;30721;49.380;7.736;2023-05-19T07:09:23;5.50;;;1.60;;
44985;SDS011;30721;49.380;7.736;2023-05-19T07:11:49;2.85;;;1.65;;
44985;SDS011;30721;49.380;7.736;2023-05-19T07:14:14;3.28;;;1.92;;
44985;SDS011;30721;49.380;7.736;2023-05-19T07:16:40;2.15;;;1.33;;
44985;SDS011;30721;49.380;7.736;2023-05-19T07:19:05;4.57;;;1.50;;
44985;SDS011;30721;49.380;7.736;2023-05-19T07:21:31;6.43;;;2.65;;
44985;SDS011;30721;49.380;7.736;2023-05-19T07:23:56;3.30;;;1.60;;
44985;SDS011;30721;49.380;7.736;2023-05-19T07:26:22;4.20;;;1.95;;
44985;SDS011;30721;49.380;7.736;2023-05-19T07:28:48;3.33;;;1.65;;
44985;SDS011;30721;49.380;7.736;2023-05-19T07:31:13;5.50;;;2.05;;
44985;SDS011;30721;49.380;7.736;2023-05-19T07:33:39;4.88;;;2.20;;
44985;SDS011;30721;49.380;7.736;2023-05-19T07:36:05;3.20;;;1.98;;
44985;SDS011;30721;49.380;7.736;2023-05-19T07:38:31;3.65;;;1.85;;
44985;SDS011;30721;49.380;7.736;2023-05-19T07:40:59;2.85;;;1.67;;
44985;SDS011;30721;49.380;7.736;2023-05-19T07:43:25;4.32;;;1.80;;
44985;SDS011;30721;49.380;7.736;2023-05-19T07:45:50;5.80;;;1.98;;
44985;SDS011;30721;49.380;7.736;2023-05-19T07:48:17;4.72;;;1.83;;
44985;SDS011;30721;49.380;7.736;2023-05-19T07:50:46;4.43;;;1.80;;
44985;SDS011;30721;49.380;7.736;2023-05-19T07:53:12;2.67;;;2.03;;
44985;SDS011;30721;49.380;7.736;2023-05-19T07:55:37;5.97;;;1.70;;
44985;SDS011;30721;49.380;7.736;2023-05-19T07:58:03;3.78;;;2.35;;
44985;SDS011;30721;49.380;7.736;2023-05-19T08:00:28;4.95;;;2.03;;
44985;SDS011;30721;49.380;7.736;2023-05-19T08:02:54;5.97;;;2.10;;
44985;SDS011;30721;49.380;7.736;2023-05-19T08:05:20;4.18;;;1.70;;
44985;SDS011;30721;49.380;7.736;2023-05-19T08:07:46;2.58;;;1.75;;
44985;SDS011;30721;49.380;7.736;2023-05-19T08:10:11;3.13;;;1.60;;
44985;SDS011;30721;49.380;7.736;2023-05-19T08:12:37;5.10;;;1.90;;
44985;SDS011;30721;49.380;7.736;2023-05-19T08:15:03;5.20;;;1.85;;
44985;SDS011;30721;49.380;7.736;2023-05-19T08:17:29;3.00;;;1.70;;
44985;SDS011;30721;49.380;7.736;2023-05-19T08:19:54;3.85;;;1.85;;
44985;SDS011;30721;49.380;7.736;2023-05-19T08:22:20;5.05;;;1.80;;
44985;SDS011;30721;49.380;7.736;2023-05-19T08:24:46;6.80;;;3.22;;
44985;SDS011;30721;49.380;7.736;2023-05-19T08:27:13;4.85;;;2.03;;
44985;SDS011;30721;49.380;7.736;2023-05-19T08:29:40;4.88;;;2.78;;
44985;SDS011;30721;49.380;7.736;2023-05-19T08:32:05;4.32;;;2.33;;
44985;SDS011;30721;49.380;7.736;2023-05-19T08:34:31;4.57;;;2.10;;
44985;SDS011;30721;49.380;7.736;2023-05-19T08:36:56;2.80;;;1.70;;
44985;SDS011;30721;49.380;7.736;2023-05-19T08:39:22;3.15;;;1.70;;
44985;SDS011;30721;49.380;7.736;2023-05-19T08:41:51;3.85;;;1.77;;
44985;SDS011;30721;49.380;7.736;2023-05-19T08:44:17;5.20;;;1.95;;
44985;SDS011;30721;49.380;7.736;2023-05-19T08:46:43;3.53;;;2.00;;
44985;SDS011;30721;49.380;7.736;2023-05-19T08:49:10;4.55;;;2.20;;
44985;SDS011;30721;49.380;7.736;2023-05-19T08:54:08;4.05;;;2.35;;
44985;SDS011;30721;49.380;7.736;2023-05-19T08:56:38;3.15;;;1.88;;
44985;SDS011;30721;49.380;7.736;2023-05-19T08:59:04;5.95;;;2.65;;
44985;SDS011;30721;49.380;7.736;2023-05-19T09:01:30;3.55;;;2.50;;
44985;SDS011;30721;49.380;7.736;2023-05-19T09:03:56;4.57;;;2.25;;
44985;SDS011;30721;49.380;7.736;2023-05-19T09:06:22;5.00;;;2.40;;
44985;SDS011;30721;49.380;7.736;2023-05-19T09:08:49;4.80;;;2.13;;
44985;SDS011;30721;49.380;7.736;2023-05-19T09:11:14;5.93;;;2.17;;
44985;SDS011;30721;49.380;7.736;2023-05-19T09:13:40;5.78;;;2.50;;
44985;SDS011;30721;49.380;7.736;2023-05-19T09:16:08;5.55;;;2.50;;
44985;SDS011;30721;49.380;7.736;2023-05-19T09:18:36;3.78;;;2.75;;
44985;SDS011;30721;49.380;7.736;2023-05-19T09:21:03;6.20;;;2.60;;
44985;SDS011;30721;49.380;7.736;2023-05-19T09:23:29;3.22;;;2.38;;
44985;SDS011;30721;49.380;7.736;2023-05-19T09:26:00;3.88;;;2.10;;
44985;SDS011;30721;49.380;7.736;2023-05-19T09:28:31;5.60;;;2.50;;
44985;SDS011;30721;49.380;7.736;2023-05-19T09:31:07;3.10;;;2.25;;
44985;SDS011;30721;49.380;7.736;2023-05-19T09:33:34;6.15;;;2.65;;
44985;SDS011;30721;49.380;7.736;2023-05-19T09:36:01;5.45;;;2.58;;
44985;SDS011;30721;49.380;7.736;2023-05-19T09:38:27;4.32;;;2.50;;
44985;SDS011;30721;49.380;7.736;2023-05-19T09:40:57;4.90;;;2.80;;
44985;SDS011;30721;49.380;7.736;2023-05-19T09:43:30;3.10;;;2.47;;
44985;SDS011;30721;49.380;7.736;2023-05-19T09:46:03;3.33;;;2.40;;
44985;SDS011;30721;49.380;7.736;2023-05-19T09:48:30;6.28;;;3.10;;
44985;SDS011;30721;49.380;7.736;2023-05-19T09:50:56;3.72;;;2.38;;
44985;SDS011;30721;49.380;7.736;2023-05-19T09:53:22;3.80;;;2.00;;
44985;SDS011;30721;49.380;7.736;2023-05-19T09:55:49;5.70;;;2.28;;
44985;SDS011;30721;49.380;7.736;2023-05-19T09:58:15;6.32;;;2.80;;
44985;SDS011;30721;49.380;7.736;2023-05-19T10:00:42;5.88;;;2.92;;
44985;SDS011;30721;49.380;7.736;2023-05-19T10:03:07;5.72;;;2.15;;
44985;SDS011;30721;49.380;7.736;2023-05-19T10:05:33;4.68;;;2.10;;
44985;SDS011;30721;49.380;7.736;2023-05-19T10:07:58;2.88;;;1.90;;
44985;SDS011;30721;49.380;7.736;2023-05-19T10:10:24;5.95;;;3.10;;
44985;SDS011;30721;49.380;7.736;2023-05-19T10:12:51;4.88;;;1.80;;
44985;SDS011;30721;49.380;7.736;2023-05-19T10:15:18;4.63;;;1.90;;
44985;SDS011;30721;49.380;7.736;2023-05-19T10:17:44;3.92;;;1.90;;
44985;SDS011;30721;49.380;7.736;2023-05-19T10:20:11;6.10;;;1.80;;
44985;SDS011;30721;49.380;7.736;2023-05-19T10:22:38;3.67;;;2.33;;
44985;SDS011;30721;49.380;7.736;2023-05-19T10:25:04;3.85;;;2.25;;
44985;SDS011;30721;49.380;7.736;2023-05-19T10:27:31;4.32;;;1.73;;
44985;SDS011;30721;49.380;7.736;2023-05-19T10:29:59;5.90;;;1.88;;
44985;SDS011;30721;49.380;7.736;2023-05-19T10:32:29;3.03;;;1.63;;
44985;SDS011;30721;49.380;7.736;2023-05-19T10:35:11;3.25;;;1.63;;
44985;SDS011;30721;49.380;7.736;2023-05-19T10:40:49;1.80;;;1.35;;
44985;SDS011;30721;49.380;7.736;2023-05-19T10:48:24;2.55;;;1.50;;
44985;SDS011;30721;49.380;7.736;2023-05-19T10:50:53;3.55;;;1.65;;
44985;SDS011;30721;49.380;7.736;2023-05-19T10:53:19;3.30;;;1.63;;
44985;SDS011;30721;49.380;7.736;2023-05-19T10:55:53;4.78;;;1.52;;
44985;SDS011;30721;49.380;7.736;2023-05-19T11:01:28;4.27;;;1.70;;
44985;SDS011;30721;49.380;7.736;2023-05-19T11:03:55;3.65;;;1.75;;
44985;SDS011;30721;49.380;7.736;2023-05-19T11:06:30;2.00;;;1.55;;
44985;SDS011;30721;49.380;7.736;2023-05-19T11:08:57;2.60;;;1.80;;
44985;SDS011;30721;49.380;7.736;2023-05-19T11:14:14;1.92;;;1.73;;
44985;SDS011;30721;49.380;7.736;2023-05-19T11:16:41;3.40;;;1.70;;
44985;SDS011;30721;49.380;7.736;2023-05-19T11:19:07;2.33;;;1.98;;
44985;SDS011;30721;49.380;7.736;2023-05-19T11:24:35;3.42;;;2.00;;
44985;SDS011;30721;49.380;7.736;2023-05-19T11:29:53;4.95;;;2.05;;
44985;SDS011;30721;49.380;7.736;2023-05-19T11:32:21;3.95;;;2.13;;
44985;SDS011;30721;49.380;7.736;2023-05-19T11:34:47;2.72;;;1.65;;
44985;SDS011;30721;49.380;7.736;2023-05-19T11:37:14;3.53;;;1.70;;
44985;SDS011;30721;49.380;7.736;2023-05-19T11:39:39;2.10;;;1.40;;
44985;SDS011;30721;49.380;7.736;2023-05-19T11:42:05;4.47;;;2.05;;
44985;SDS011;30721;49.380;7.736;2023-05-19T11:44:31;4.38;;;1.88;;
44985;SDS011;30721;49.380;7.736;2023-05-19T11:46:57;3.92;;;1.75;;
44985;SDS011;30721;49.380;7.736;2023-05-19T11:49:23;4.38;;;1.90;;
44985;SDS011;30721;49.380;7.736;2023-05-19T11:51:50;4.05;;;2.28;;
44985;SDS011;30721;49.380;7.736;2023-05-19T11:54:16;3.50;;;1.80;;
44985;SDS011;30721;49.380;7.736;2023-05-19T11:56:43;3.35;;;1.92;;
44985;SDS011;30721;49.380;7.736;2023-05-19T11:59:08;4.45;;;1.75;;
44985;SDS011;30721;49.380;7.736;2023-05-19T12:01:34;5.43;;;2.40;;
44985;SDS011;30721;49.380;7.736;2023-05-19T12:04:00;4.22;;;2.05;;
44985;SDS011;30721;49.380;7.736;2023-05-19T12:06:28;4.05;;;1.83;;
44985;SDS011;30721;49.380;7.736;2023-05-19T12:08:54;5.18;;;2.17;;
44985;SDS011;30721;49.380;7.736;2023-05-19T12:11:20;3.75;;;2.00;;
44985;SDS011;30721;49.380;7.736;2023-05-19T12:13:47;4.93;;;2.15;;
44985;SDS011;30721;49.380;7.736;2023-05-19T12:16:14;2.90;;;2.10;;
44985;SDS011;30721;49.380;7.736;2023-05-19T12:18:39;3.92;;;1.90;;
44985;SDS011;30721;49.380;7.736;2023-05-19T12:21:05;3.30;;;2.13;;
44985;SDS011;30721;49.380;7.736;2023-05-19T12:23:31;4.40;;;1.67;;
44985;SDS011;30721;49.380;7.736;2023-05-19T12:25:57;4.63;;;1.60;;
44985;SDS011;30721;49.380;7.736;2023-05-19T12:28:23;3.30;;;1.70;;
44985;SDS011;30721;49.380;7.736;2023-05-19T12:30:49;3.47;;;1.80;;
44985;SDS011;30721;49.380;7.736;2023-05-19T12:33:16;1.80;;;1.63;;
44985;SDS011;30721;49.380;7.736;2023-05-19T12:35:44;2.92;;;1.90;;
44985;SDS011;30721;49.380;7.736;2023-05-19T12:38:10;2.53;;;1.80;;
44985;SDS011;30721;49.380;7.736;2023-05-19T12:40:35;4.18;;;2.17;;
44985;SDS011;30721;49.380;7.736;2023-05-19T12:43:02;2.58;;;1.95;;
44985;SDS011;30721;49.380;7.736;2023-05-19T12:45:28;4.70;;;1.80;;
44985;SDS011;30721;49.380;7.736;2023-05-19T12:48:04;3.92;;;1.90;;
44985;SDS011;30721;49.380;7.736;2023-05-19T12:50:30;4.60;;;1.85;;
44985;SDS011;30721;49.380;7.736;2023-05-19T12:52:56;3.50;;;1.92;;
44985;SDS011;30721;49.380;7.736;2023-05-19T12:55:23;2.75;;;1.88;;
44985;SDS011;30721;49.380;7.736;2023-05-19T12:57:49;3.38;;;2.05;;
44985;SDS011;30721;49.380;7.736;2023-05-19T13:00:17;3.90;;;2.00;;
44985;SDS011;30721;49.380;7.736;2023-05-19T13:03:01;2.30;;;1.50;;
44985;SDS011;30721;49.380;7.736;2023-05-19T13:05:31;3.70;;;1.98;;
44985;SDS011;30721;49.380;7.736;2023-05-19T13:08:08;2.65;;;2.10;;
44985;SDS011;30721;49.380;7.736;2023-05-19T13:10:35;4.85;;;2.25;;
44985;SDS011;30721;49.380;7.736;2023-05-19T13:13:01;3.00;;;1.92;;
44985;SDS011;30721;49.380;7.736;2023-05-19T13:15:28;3.55;;;2.15;;
44985;SDS011;30721;49.380;7.736;2023-05-19T13:17:56;2.33;;;1.80;;
44985;SDS011;30721;49.380;7.736;2023-05-19T13:20:22;4.35;;;1.90;;
44985;SDS011;30721;49.380;7.736;2023-05-19T13:22:48;3.67;;;2.30;;
44985;SDS011;30721;49.380;7.736;2023-05-19T13:25:13;2.92;;;2.38;;
44985;SDS011;30721;49.380;7.736;2023-05-19T13:27:39;2.60;;;1.98;;
44985;SDS011;30721;49.380;7.736;2023-05-19T13:30:04;6.43;;;2.25;;
44985;SDS011;30721;49.380;7.736;2023-05-19T13:32:30;3.30;;;1.90;;
44985;SDS011;30721;49.380;7.736;2023-05-19T13:34:56;3.30;;;1.75;;
44985;SDS011;30721;49.380;7.736;2023-05-19T13:37:22;3.42;;;1.88;;
44985;SDS011;30721;49.380;7.736;2023-05-19T13:39:48;3.70;;;1.73;;
44985;SDS011;30721;49.380;7.736;2023-05-19T13:42:13;2.90;;;1.90;;
44985;SDS011;30721;49.380;7.736;2023-05-19T13:44:39;4.22;;;2.22;;
44985;SDS011;30721;49.380;7.736;2023-05-19T13:47:04;3.28;;;1.88;;
44985;SDS011;30721;49.380;7.736;2023-05-19T13:49:29;4.78;;;2.05;;
44985;SDS011;30721;49.380;7.736;2023-05-19T13:51:55;4.00;;;2.08;;
44985;SDS011;30721;49.380;7.736;2023-05-19T13:54:24;2.28;;;1.73;;
44985;SDS011;30721;49.380;7.736;2023-05-19T13:56:49;3.13;;;1.88;;
44985;SDS011;30721;49.380;7.736;2023-05-19T13:59:15;3.00;;;2.20;;
44985;SDS011;30721;49.380;7.736;2023-05-19T14:01:45;2.95;;;2.22;;
44985;SDS011;30721;49.380;7.736;2023-05-19T14:04:12;2.33;;;2.00;;
44985;SDS011;30721;49.380;7.736;2023-05-19T14:06:38;2.10;;;1.58;;
44985;SDS011;30721;49.380;7.736;2023-05-19T14:09:04;2.50;;;1.80;;
44985;SDS011;30721;49.380;7.736;2023-05-19T14:11:30;2.00;;;1.65;;
44985;SDS011;30721;49.380;7.736;2023-05-19T14:13:55;3.53;;;1.92;;
44985;SDS011;30721;49.380;7.736;2023-05-19T14:16:21;5.53;;;1.83;;
44985;SDS011;30721;49.380;7.736;2023-05-19T14:18:48;3.25;;;1.80;;
44985;SDS011;30721;49.380;7.736;2023-05-19T14:21:14;3.65;;;1.70;;
44985;SDS011;30721;49.380;7.736;2023-05-19T14:23:39;2.85;;;1.98;;
44985;SDS011;30721;49.380;7.736;2023-05-19T14:26:05;4.80;;;2.00;;
44985;SDS011;30721;49.380;7.736;2023-05-19T14:28:30;4.47;;;2.30;;
44985;SDS011;30721;49.380;7.736;2023-05-19T14:30:56;3.80;;;1.67;;
44985;SDS011;30721;49.380;7.736;2023-05-19T14:33:21;4.38;;;2.00;;
44985;SDS011;30721;49.380;7.736;2023-05-19T14:35:46;2.92;;;1.85;;
44985;SDS011;30721;49.380;7.736;2023-05-19T14:38:12;6.93;;;2.85;;
44985;SDS011;30721;49.380;7.736;2023-05-19T14:40:37;6.18;;;2.53;;
44985;SDS011;30721;49.380;7.736;2023-05-19T14:43:08;3.15;;;2.40;;
44985;SDS011;30721;49.380;7.736;2023-05-19T14:45:35;2.70;;;1.90;;
44985;SDS011;30721;49.380;7.736;2023-05-19T14:48:02;3.20;;;1.70;;
44985;SDS011;30721;49.380;7.736;2023-05-19T14:50:27;3.45;;;1.60;;
44985;SDS011;30721;49.380;7.736;2023-05-19T14:52:52;2.00;;;1.25;;
44985;SDS011;30721;49.380;7.736;2023-05-19T14:55:18;1.95;;;1.50;;
44985;SDS011;30721;49.380;7.736;2023-05-19T14:57:43;3.42;;;1.50;;
44985;SDS011;30721;49.380;7.736;2023-05-19T15:00:09;2.70;;;2.00;;
44985;SDS011;30721;49.380;7.736;2023-05-19T15:02:35;3.45;;;2.33;;
44985;SDS011;30721;49.380;7.736;2023-05-19T15:05:00;1.50;;;1.40;;
44985;SDS011;30721;49.380;7.736;2023-05-19T15:07:26;3.22;;;1.63;;
44985;SDS011;30721;49.380;7.736;2023-05-19T15:09:52;2.70;;;1.88;;
44985;SDS011;30721;49.380;7.736;2023-05-19T15:12:17;2.53;;;1.65;;
44985;SDS011;30721;49.380;7.736;2023-05-19T15:14:43;3.17;;;2.05;;
44985;SDS011;30721;49.380;7.736;2023-05-19T15:17:08;3.78;;;2.20;;
44985;SDS011;30721;49.380;7.736;2023-05-19T15:19:33;3.78;;;1.83;;
44985;SDS011;30721;49.380;7.736;2023-05-19T15:21:59;4.88;;;2.22;;
44985;SDS011;30721;49.380;7.736;2023-05-19T15:24:25;2.60;;;1.85;;